sensor_id;sensor_type;location;lat;lon;timestamp;P1;durP1;ratioP1;P2;durP2;ratioP2
43560;SDS011;32305;46.410;17.394;2022-07-23T00:00:20;0.93;;;0.93;;
43560;SDS011;32305;46.410;17.394;2022-07-23T00:02:47;1.35;;;1.33;;
43560;SDS011;32305;46.410;17.394;2022-07-23T00:05:15;1.20;;;1.20;;
43560;SDS011;32305;46.410;17.394;2022-07-23T00:07:42;1.38;;;1.23;;
43560;SDS011;32305;46.410;17.394;2022-07-23T00:10:09;1.65;;;1.55;;
43560;SDS011;32305;46.410;17.394;2022-07-23T00:12:36;1.60;;;1.50;;
43560;SDS011;32305;46.410;17.394;2022-07-23T00:15:17;1.70;;;1.60;;
43560;SDS011;32305;46.410;17.394;2022-07-23T00:17:45;1.60;;;1.50;;
43560;SDS011;32305;46.410;17.394;2022-07-23T00:20:12;1.42;;;1.42;;
43560;SDS011;32305;46.410;17.394;2022-07-23T00:22:47;1.30;;;1.30;;
43560;SDS011;32305;46.410;17.394;2022-07-23T00:25:19;1.58;;;1.48;;
43560;SDS011;32305;46.410;17.394;2022-07-23T00:27:58;1.50;;;1.40;;
43560;SDS011;32305;46.410;17.394;2022-07-23T00:30:26;1.60;;;1.50;;
43560;SDS011;32305;46.410;17.394;2022-07-23T00:32:57;1.40;;;1.30;;
43560;SDS011;32305;46.410;17.394;2022-07-23T00:35:26;1.67;;;1.58;;
43560;SDS011;32305;46.410;17.394;2022-07-23T00:37:56;1.23;;;1.20;;
43560;SDS011;32305;46.410;17.394;2022-07-23T00:40:23;1.35;;;1.27;;
43560;SDS011;32305;46.410;17.394;2022-07-23T00:42:51;1.27;;;1.27;;
43560;SDS011;32305;46.410;17.394;2022-07-23T00:45:18;1.75;;;1.40;;
43560;SDS011;32305;46.410;17.394;2022-07-23T00:47:46;1.40;;;1.30;;
43560;SDS011;32305;46.410;17.394;2022-07-23T00:50:13;1.70;;;1.60;;
43560;SDS011;32305;46.410;17.394;2022-07-23T00:52:41;1.55;;;1.45;;
43560;SDS011;32305;46.410;17.394;2022-07-23T00:55:09;1.33;;;1.27;;
43560;SDS011;32305;46.410;17.394;2022-07-23T00:57:37;1.40;;;1.30;;
43560;SDS011;32305;46.410;17.394;2022-07-23T01:00:06;1.13;;;1.10;;
43560;SDS011;32305;46.410;17.394;2022-07-23T01:02:35;1.33;;;1.33;;
43560;SDS011;32305;46.410;17.394;2022-07-23T01:05:03;1.90;;;1.80;;
43560;SDS011;32305;46.410;17.394;2022-07-23T01:07:31;1.45;;;1.15;;
43560;SDS011;32305;46.410;17.394;2022-07-23T01:09:59;1.42;;;1.33;;
43560;SDS011;32305;46.410;17.394;2022-07-23T01:12:27;1.30;;;1.30;;
43560;SDS011;32305;46.410;17.394;2022-07-23T01:14:54;1.70;;;1.50;;
43560;SDS011;32305;46.410;17.394;2022-07-23T01:17:22;1.40;;;1.40;;
43560;SDS011;32305;46.410;17.394;2022-07-23T01:19:49;1.67;;;1.58;;
43560;SDS011;32305;46.410;17.394;2022-07-23T01:22:20;1.65;;;1.55;;
43560;SDS011;32305;46.410;17.394;2022-07-23T01:24:47;1.50;;;1.40;;
43560;SDS011;32305;46.410;17.394;2022-07-23T01:27:15;1.60;;;1.50;;
43560;SDS011;32305;46.410;17.394;2022-07-23T01:29:44;2.53;;;1.27;;
43560;SDS011;32305;46.410;17.394;2022-07-23T01:32:11;1.50;;;1.40;;
43560;SDS011;32305;46.410;17.394;2022-07-23T01:34:38;1.33;;;1.23;;
43560;SDS011;32305;46.410;17.394;2022-07-23T01:37:07;1.38;;;1.27;;
43560;SDS011;32305;46.410;17.394;2022-07-23T01:39:34;1.05;;;0.98;;
43560;SDS011;32305;46.410;17.394;2022-07-23T01:42:01;1.20;;;1.20;;
43560;SDS011;32305;46.410;17.394;2022-07-23T01:44:29;1.35;;;1.27;;
43560;SDS011;32305;46.410;17.394;2022-07-23T01:46:56;1.58;;;1.48;;
43560;SDS011;32305;46.410;17.394;2022-07-23T01:49:23;1.50;;;1.40;;
43560;SDS011;32305;46.410;17.394;2022-07-23T01:51:50;1.30;;;1.30;;
43560;SDS011;32305;46.410;17.394;2022-07-23T01:54:27;1.17;;;1.17;;
43560;SDS011;32305;46.410;17.394;2022-07-23T01:56:55;1.42;;;1.40;;
43560;SDS011;32305;46.410;17.394;2022-07-23T01:59:23;1.20;;;1.20;;
43560;SDS011;32305;46.410;17.394;2022-07-23T02:01:51;1.35;;;1.33;;
43560;SDS011;32305;46.410;17.394;2022-07-23T02:04:20;1.13;;;1.10;;
43560;SDS011;32305;46.410;17.394;2022-07-23T02:06:48;1.75;;;1.65;;
43560;SDS011;32305;46.410;17.394;2022-07-23T02:09:15;1.42;;;1.33;;
43560;SDS011;32305;46.410;17.394;2022-07-23T02:11:43;1.58;;;1.48;;
43560;SDS011;32305;46.410;17.394;2022-07-23T02:14:10;1.30;;;1.30;;
43560;SDS011;32305;46.410;17.394;2022-07-23T02:16:37;1.20;;;1.20;;
43560;SDS011;32305;46.410;17.394;2022-07-23T02:19:05;1.23;;;1.23;;
43560;SDS011;32305;46.410;17.394;2022-07-23T02:21:32;1.00;;;1.00;;
43560;SDS011;32305;46.410;17.394;2022-07-23T02:23:59;1.10;;;1.10;;
43560;SDS011;32305;46.410;17.394;2022-07-23T02:26:26;1.40;;;1.40;;
43560;SDS011;32305;46.410;17.394;2022-07-23T02:28:53;1.10;;;1.10;;
43560;SDS011;32305;46.410;17.394;2022-07-23T02:31:21;0.90;;;0.90;;
43560;SDS011;32305;46.410;17.394;2022-07-23T02:33:48;1.15;;;1.15;;
43560;SDS011;32305;46.410;17.394;2022-07-23T02:36:15;1.30;;;1.23;;
43560;SDS011;32305;46.410;17.394;2022-07-23T02:38:42;1.50;;;1.42;;
43560;SDS011;32305;46.410;17.394;2022-07-23T02:41:09;1.13;;;1.13;;
43560;SDS011;32305;46.410;17.394;2022-07-23T02:43:37;1.42;;;1.27;;
43560;SDS011;32305;46.410;17.394;2022-07-23T02:46:04;1.60;;;1.48;;
43560;SDS011;32305;46.410;17.394;2022-07-23T02:48:31;1.10;;;1.10;;
43560;SDS011;32305;46.410;17.394;2022-07-23T02:51:00;1.42;;;1.33;;
43560;SDS011;32305;46.410;17.394;2022-07-23T02:53:27;1.45;;;1.35;;
43560;SDS011;32305;46.410;17.394;2022-07-23T02:55:55;1.10;;;1.10;;
43560;SDS011;32305;46.410;17.394;2022-07-23T02:58:22;1.20;;;1.20;;
43560;SDS011;32305;46.410;17.394;2022-07-23T03:00:49;1.25;;;1.20;;
43560;SDS011;32305;46.410;17.394;2022-07-23T03:03:17;1.63;;;1.50;;
43560;SDS011;32305;46.410;17.394;2022-07-23T03:05:44;1.48;;;1.45;;
43560;SDS011;32305;46.410;17.394;2022-07-23T03:08:11;1.52;;;1.42;;
43560;SDS011;32305;46.410;17.394;2022-07-23T03:10:39;1.38;;;1.27;;
43560;SDS011;32305;46.410;17.394;2022-07-23T03:13:06;1.27;;;1.17;;
43560;SDS011;32305;46.410;17.394;2022-07-23T03:15:33;1.33;;;1.30;;
43560;SDS011;32305;46.410;17.394;2022-07-23T03:18:00;1.55;;;1.10;;
43560;SDS011;32305;46.410;17.394;2022-07-23T03:20:27;1.38;;;1.25;;
43560;SDS011;32305;46.410;17.394;2022-07-23T03:22:55;0.90;;;0.90;;
43560;SDS011;32305;46.410;17.394;2022-07-23T03:25:22;1.23;;;1.23;;
43560;SDS011;32305;46.410;17.394;2022-07-23T03:27:49;1.50;;;1.40;;
43560;SDS011;32305;46.410;17.394;2022-07-23T03:30:16;1.40;;;1.30;;
43560;SDS011;32305;46.410;17.394;2022-07-23T03:32:43;1.05;;;1.05;;
43560;SDS011;32305;46.410;17.394;2022-07-23T03:35:11;1.10;;;1.00;;
43560;SDS011;32305;46.410;17.394;2022-07-23T03:37:38;1.33;;;1.30;;
43560;SDS011;32305;46.410;17.394;2022-07-23T03:40:05;1.20;;;1.20;;
43560;SDS011;32305;46.410;17.394;2022-07-23T03:42:33;1.20;;;1.20;;
43560;SDS011;32305;46.410;17.394;2022-07-23T03:45:00;0.98;;;0.98;;
43560;SDS011;32305;46.410;17.394;2022-07-23T03:47:28;1.00;;;1.00;;
43560;SDS011;32305;46.410;17.394;2022-07-23T03:49:55;1.35;;;1.23;;
43560;SDS011;32305;46.410;17.394;2022-07-23T03:52:22;1.30;;;1.20;;
43560;SDS011;32305;46.410;17.394;2022-07-23T03:54:49;1.55;;;1.45;;
43560;SDS011;32305;46.410;17.394;2022-07-23T03:57:16;1.00;;;1.00;;
43560;SDS011;32305;46.410;17.394;2022-07-23T03:59:43;1.52;;;1.42;;
43560;SDS011;32305;46.410;17.394;2022-07-23T04:02:10;1.85;;;1.10;;
43560;SDS011;32305;46.410;17.394;2022-07-23T04:04:38;1.17;;;1.17;;
43560;SDS011;32305;46.410;17.394;2022-07-23T04:07:05;1.13;;;1.13;;
43560;SDS011;32305;46.410;17.394;2022-07-23T04:09:33;1.27;;;1.27;;
43560;SDS011;32305;46.410;17.394;2022-07-23T04:12:00;1.20;;;1.20;;
43560;SDS011;32305;46.410;17.394;2022-07-23T04:14:28;1.10;;;1.10;;
43560;SDS011;32305;46.410;17.394;2022-07-23T04:16:55;1.30;;;1.20;;
43560;SDS011;32305;46.410;17.394;2022-07-23T04:19:22;1.10;;;1.10;;
43560;SDS011;32305;46.410;17.394;2022-07-23T04:21:49;1.00;;;1.00;;
43560;SDS011;32305;46.410;17.394;2022-07-23T04:24:16;1.60;;;1.50;;
43560;SDS011;32305;46.410;17.394;2022-07-23T04:26:44;1.00;;;1.00;;
43560;SDS011;32305;46.410;17.394;2022-07-23T04:29:11;1.45;;;1.35;;
43560;SDS011;32305;46.410;17.394;2022-07-23T04:31:38;1.20;;;1.00;;
43560;SDS011;32305;46.410;17.394;2022-07-23T04:34:06;1.10;;;1.10;;
43560;SDS011;32305;46.410;17.394;2022-07-23T04:36:33;1.50;;;1.40;;
43560;SDS011;32305;46.410;17.394;2022-07-23T04:39:00;1.00;;;1.00;;
43560;SDS011;32305;46.410;17.394;2022-07-23T04:41:28;1.10;;;1.10;;
43560;SDS011;32305;46.410;17.394;2022-07-23T04:43:55;1.17;;;1.15;;
43560;SDS011;32305;46.410;17.394;2022-07-23T04:46:22;1.08;;;1.05;;
43560;SDS011;32305;46.410;17.394;2022-07-23T04:48:49;0.95;;;0.95;;
43560;SDS011;32305;46.410;17.394;2022-07-23T04:51:17;1.15;;;1.08;;
43560;SDS011;32305;46.410;17.394;2022-07-23T04:53:44;0.90;;;0.90;;
43560;SDS011;32305;46.410;17.394;2022-07-23T04:56:11;1.50;;;1.40;;
43560;SDS011;32305;46.410;17.394;2022-07-23T04:58:38;1.02;;;1.02;;
43560;SDS011;32305;46.410;17.394;2022-07-23T05:01:05;0.82;;;0.82;;
43560;SDS011;32305;46.410;17.394;2022-07-23T05:03:32;0.88;;;0.88;;
43560;SDS011;32305;46.410;17.394;2022-07-23T05:06:00;1.33;;;1.23;;
43560;SDS011;32305;46.410;17.394;2022-07-23T05:08:27;1.52;;;1.45;;
43560;SDS011;32305;46.410;17.394;2022-07-23T05:10:54;1.20;;;1.20;;
43560;SDS011;32305;46.410;17.394;2022-07-23T05:13:21;1.55;;;1.45;;
43560;SDS011;32305;46.410;17.394;2022-07-23T05:15:48;1.80;;;1.70;;
43560;SDS011;32305;46.410;17.394;2022-07-23T05:18:16;2.00;;;1.90;;
43560;SDS011;32305;46.410;17.394;2022-07-23T05:20:43;1.73;;;1.60;;
43560;SDS011;32305;46.410;17.394;2022-07-23T05:23:10;2.55;;;1.88;;
43560;SDS011;32305;46.410;17.394;2022-07-23T05:25:37;1.80;;;1.70;;
43560;SDS011;32305;46.410;17.394;2022-07-23T05:28:06;1.98;;;1.88;;
43560;SDS011;32305;46.410;17.394;2022-07-23T05:30:33;2.00;;;1.90;;
43560;SDS011;32305;46.410;17.394;2022-07-23T05:33:00;2.67;;;2.47;;
43560;SDS011;32305;46.410;17.394;2022-07-23T05:35:27;3.80;;;2.15;;
43560;SDS011;32305;46.410;17.394;2022-07-23T05:37:54;2.40;;;2.20;;
43560;SDS011;32305;46.410;17.394;2022-07-23T05:40:21;3.45;;;3.13;;
43560;SDS011;32305;46.410;17.394;2022-07-23T05:42:49;3.38;;;2.63;;
43560;SDS011;32305;46.410;17.394;2022-07-23T05:45:16;4.63;;;2.60;;
43560;SDS011;32305;46.410;17.394;2022-07-23T05:47:44;6.45;;;2.08;;
43560;SDS011;32305;46.410;17.394;2022-07-23T05:50:13;2.50;;;2.30;;
43560;SDS011;32305;46.410;17.394;2022-07-23T05:52:40;3.03;;;2.83;;
43560;SDS011;32305;46.410;17.394;2022-07-23T05:55:09;4.10;;;2.78;;
43560;SDS011;32305;46.410;17.394;2022-07-23T05:57:37;3.00;;;2.70;;
43560;SDS011;32305;46.410;17.394;2022-07-23T06:00:05;3.13;;;2.90;;
43560;SDS011;32305;46.410;17.394;2022-07-23T06:02:34;3.28;;;2.75;;
43560;SDS011;32305;46.410;17.394;2022-07-23T06:05:01;3.78;;;3.20;;
43560;SDS011;32305;46.410;17.394;2022-07-23T06:07:28;3.38;;;3.08;;
43560;SDS011;32305;46.410;17.394;2022-07-23T06:09:55;3.33;;;3.08;;
43560;SDS011;32305;46.410;17.394;2022-07-23T06:12:22;3.38;;;3.00;;
43560;SDS011;32305;46.410;17.394;2022-07-23T06:14:50;3.17;;;2.88;;
43560;SDS011;32305;46.410;17.394;2022-07-23T06:17:18;4.53;;;3.10;;
43560;SDS011;32305;46.410;17.394;2022-07-23T06:19:45;3.35;;;3.05;;
43560;SDS011;32305;46.410;17.394;2022-07-23T06:22:13;4.13;;;3.47;;
43560;SDS011;32305;46.410;17.394;2022-07-23T06:24:40;3.25;;;3.05;;
43560;SDS011;32305;46.410;17.394;2022-07-23T06:27:07;3.58;;;3.25;;
43560;SDS011;32305;46.410;17.394;2022-07-23T06:29:34;3.90;;;3.58;;
43560;SDS011;32305;46.410;17.394;2022-07-23T06:32:01;3.38;;;2.97;;
43560;SDS011;32305;46.410;17.394;2022-07-23T06:34:28;4.13;;;3.72;;
43560;SDS011;32305;46.410;17.394;2022-07-23T06:36:55;3.65;;;3.35;;
43560;SDS011;32305;46.410;17.394;2022-07-23T06:39:23;3.55;;;3.25;;
43560;SDS011;32305;46.410;17.394;2022-07-23T06:41:51;3.85;;;3.33;;
43560;SDS011;32305;46.410;17.394;2022-07-23T06:44:25;4.50;;;3.92;;
43560;SDS011;32305;46.410;17.394;2022-07-23T06:46:53;3.53;;;3.20;;
43560;SDS011;32305;46.410;17.394;2022-07-23T06:49:20;3.67;;;3.28;;
43560;SDS011;32305;46.410;17.394;2022-07-23T06:51:47;7.70;;;4.10;;
43560;SDS011;32305;46.410;17.394;2022-07-23T06:54:14;3.47;;;3.13;;
43560;SDS011;32305;46.410;17.394;2022-07-23T06:56:41;4.72;;;3.92;;
43560;SDS011;32305;46.410;17.394;2022-07-23T06:59:09;6.60;;;3.40;;
43560;SDS011;32305;46.410;17.394;2022-07-23T07:01:37;8.63;;;3.67;;
43560;SDS011;32305;46.410;17.394;2022-07-23T07:04:04;4.35;;;3.90;;
43560;SDS011;32305;46.410;17.394;2022-07-23T07:06:31;4.82;;;3.50;;
43560;SDS011;32305;46.410;17.394;2022-07-23T07:08:58;4.07;;;3.38;;
43560;SDS011;32305;46.410;17.394;2022-07-23T07:11:26;4.28;;;3.58;;
43560;SDS011;32305;46.410;17.394;2022-07-23T07:13:53;4.55;;;3.58;;
43560;SDS011;32305;46.410;17.394;2022-07-23T07:16:20;8.45;;;4.28;;
43560;SDS011;32305;46.410;17.394;2022-07-23T07:18:47;3.97;;;3.60;;
43560;SDS011;32305;46.410;17.394;2022-07-23T07:21:15;4.18;;;3.70;;
43560;SDS011;32305;46.410;17.394;2022-07-23T07:23:42;3.90;;;3.60;;
43560;SDS011;32305;46.410;17.394;2022-07-23T07:26:09;4.45;;;3.72;;
43560;SDS011;32305;46.410;17.394;2022-07-23T07:28:36;4.95;;;3.70;;
43560;SDS011;32305;46.410;17.394;2022-07-23T07:31:03;5.95;;;4.55;;
43560;SDS011;32305;46.410;17.394;2022-07-23T07:33:30;4.75;;;4.35;;
43560;SDS011;32305;46.410;17.394;2022-07-23T07:35:57;4.47;;;4.03;;
43560;SDS011;32305;46.410;17.394;2022-07-23T07:38:25;4.55;;;4.07;;
43560;SDS011;32305;46.410;17.394;2022-07-23T07:40:52;4.55;;;4.10;;
43560;SDS011;32305;46.410;17.394;2022-07-23T07:43:19;4.20;;;3.80;;
43560;SDS011;32305;46.410;17.394;2022-07-23T07:45:46;5.68;;;4.03;;
43560;SDS011;32305;46.410;17.394;2022-07-23T07:48:13;4.38;;;3.92;;
43560;SDS011;32305;46.410;17.394;2022-07-23T07:50:40;3.80;;;3.50;;
43560;SDS011;32305;46.410;17.394;2022-07-23T07:53:09;5.45;;;4.13;;
43560;SDS011;32305;46.410;17.394;2022-07-23T07:55:36;5.80;;;4.15;;
43560;SDS011;32305;46.410;17.394;2022-07-23T07:58:05;4.60;;;3.45;;
43560;SDS011;32305;46.410;17.394;2022-07-23T08:00:32;4.50;;;4.10;;
43560;SDS011;32305;46.410;17.394;2022-07-23T08:02:59;4.78;;;3.65;;
43560;SDS011;32305;46.410;17.394;2022-07-23T08:05:29;6.82;;;4.00;;
43560;SDS011;32305;46.410;17.394;2022-07-23T08:07:57;4.10;;;3.80;;
43560;SDS011;32305;46.410;17.394;2022-07-23T08:10:26;4.25;;;3.85;;
43560;SDS011;32305;46.410;17.394;2022-07-23T08:12:54;5.45;;;4.45;;
43560;SDS011;32305;46.410;17.394;2022-07-23T08:15:27;4.93;;;4.47;;
43560;SDS011;32305;46.410;17.394;2022-07-23T08:17:56;3.90;;;3.55;;
43560;SDS011;32305;46.410;17.394;2022-07-23T08:20:24;4.43;;;4.03;;
43560;SDS011;32305;46.410;17.394;2022-07-23T08:22:55;5.05;;;4.13;;
43560;SDS011;32305;46.410;17.394;2022-07-23T08:25:37;4.30;;;3.92;;
43560;SDS011;32305;46.410;17.394;2022-07-23T08:28:07;4.60;;;4.05;;
43560;SDS011;32305;46.410;17.394;2022-07-23T08:30:35;3.83;;;3.53;;
43560;SDS011;32305;46.410;17.394;2022-07-23T08:33:05;5.80;;;4.20;;
43560;SDS011;32305;46.410;17.394;2022-07-23T08:35:59;4.60;;;3.80;;
43560;SDS011;32305;46.410;17.394;2022-07-23T08:40:57;6.20;;;4.47;;
43560;SDS011;32305;46.410;17.394;2022-07-23T08:43:25;3.95;;;3.60;;
43560;SDS011;32305;46.410;17.394;2022-07-23T08:45:54;4.10;;;3.80;;
43560;SDS011;32305;46.410;17.394;2022-07-23T08:48:31;6.65;;;3.83;;
43560;SDS011;32305;46.410;17.394;2022-07-23T08:51:00;4.30;;;3.90;;
43560;SDS011;32305;46.410;17.394;2022-07-23T08:53:30;4.30;;;3.90;;
43560;SDS011;32305;46.410;17.394;2022-07-23T08:55:59;3.55;;;3.20;;
43560;SDS011;32305;46.410;17.394;2022-07-23T08:58:28;4.40;;;3.97;;
43560;SDS011;32305;46.410;17.394;2022-07-23T09:00:57;4.70;;;3.80;;
43560;SDS011;32305;46.410;17.394;2022-07-23T09:03:26;5.72;;;3.78;;
43560;SDS011;32305;46.410;17.394;2022-07-23T09:06:01;5.03;;;3.83;;
43560;SDS011;32305;46.410;17.394;2022-07-23T09:08:36;4.68;;;3.53;;
43560;SDS011;32305;46.410;17.394;2022-07-23T09:11:06;6.28;;;4.05;;
43560;SDS011;32305;46.410;17.394;2022-07-23T09:13:39;3.88;;;3.42;;
43560;SDS011;32305;46.410;17.394;2022-07-23T09:16:12;4.13;;;3.72;;
43560;SDS011;32305;46.410;17.394;2022-07-23T09:18:43;4.03;;;3.63;;
43560;SDS011;32305;46.410;17.394;2022-07-23T09:21:26;4.15;;;3.40;;
43560;SDS011;32305;46.410;17.394;2022-07-23T09:23:59;4.38;;;3.80;;
43560;SDS011;32305;46.410;17.394;2022-07-23T09:26:33;3.90;;;3.60;;
43560;SDS011;32305;46.410;17.394;2022-07-23T09:29:10;5.00;;;3.72;;
43560;SDS011;32305;46.410;17.394;2022-07-23T09:31:43;4.65;;;3.72;;
43560;SDS011;32305;46.410;17.394;2022-07-23T09:34:19;4.82;;;4.25;;
43560;SDS011;32305;46.410;17.394;2022-07-23T09:37:12;5.00;;;3.40;;
43560;SDS011;32305;46.410;17.394;2022-07-23T09:39:41;4.47;;;3.95;;
43560;SDS011;32305;46.410;17.394;2022-07-23T09:42:26;5.47;;;4.20;;
43560;SDS011;32305;46.410;17.394;2022-07-23T09:44:53;3.88;;;3.45;;
43560;SDS011;32305;46.410;17.394;2022-07-23T09:47:24;5.50;;;4.28;;
43560;SDS011;32305;46.410;17.394;2022-07-23T09:50:00;4.78;;;3.72;;
43560;SDS011;32305;46.410;17.394;2022-07-23T09:52:33;6.90;;;3.85;;
43560;SDS011;32305;46.410;17.394;2022-07-23T09:55:03;4.20;;;3.80;;
43560;SDS011;32305;46.410;17.394;2022-07-23T09:57:32;3.92;;;3.53;;
43560;SDS011;32305;46.410;17.394;2022-07-23T10:00:04;4.40;;;3.50;;
43560;SDS011;32305;46.410;17.394;2022-07-23T10:02:34;4.00;;;3.70;;
43560;SDS011;32305;46.410;17.394;2022-07-23T10:05:02;5.68;;;4.18;;
43560;SDS011;32305;46.410;17.394;2022-07-23T10:07:31;4.65;;;4.15;;
43560;SDS011;32305;46.410;17.394;2022-07-23T10:10:04;4.65;;;4.25;;
43560;SDS011;32305;46.410;17.394;2022-07-23T10:12:32;3.88;;;3.58;;
43560;SDS011;32305;46.410;17.394;2022-07-23T10:15:19;4.32;;;3.92;;
43560;SDS011;32305;46.410;17.394;2022-07-23T10:17:47;9.00;;;4.60;;
43560;SDS011;32305;46.410;17.394;2022-07-23T10:20:15;4.05;;;3.75;;
43560;SDS011;32305;46.410;17.394;2022-07-23T10:22:44;4.47;;;4.07;;
43560;SDS011;32305;46.410;17.394;2022-07-23T10:25:36;4.65;;;4.25;;
43560;SDS011;32305;46.410;17.394;2022-07-23T10:28:29;6.30;;;4.47;;
43560;SDS011;32305;46.410;17.394;2022-07-23T10:31:25;4.35;;;3.95;;
43560;SDS011;32305;46.410;17.394;2022-07-23T10:34:25;3.65;;;3.35;;
43560;SDS011;32305;46.410;17.394;2022-07-23T10:42:44;4.25;;;3.85;;
43560;SDS011;32305;46.410;17.394;2022-07-23T10:45:33;4.45;;;4.05;;
43560;SDS011;32305;46.410;17.394;2022-07-23T10:48:11;4.90;;;4.40;;
43560;SDS011;32305;46.410;17.394;2022-07-23T10:50:44;7.35;;;4.03;;
43560;SDS011;32305;46.410;17.394;2022-07-23T10:54:05;3.90;;;3.60;;
43560;SDS011;32305;46.410;17.394;2022-07-23T11:02:42;6.50;;;4.60;;
43560;SDS011;32305;46.410;17.394;2022-07-23T11:10:52;4.35;;;4.05;;
43560;SDS011;32305;46.410;17.394;2022-07-23T11:13:26;5.65;;;5.15;;
43560;SDS011;32305;46.410;17.394;2022-07-23T11:16:06;4.50;;;4.05;;
43560;SDS011;32305;46.410;17.394;2022-07-23T11:18:57;4.97;;;4.10;;
43560;SDS011;32305;46.410;17.394;2022-07-23T11:24:14;6.10;;;4.85;;
43560;SDS011;32305;46.410;17.394;2022-07-23T11:26:47;4.63;;;4.28;;
43560;SDS011;32305;46.410;17.394;2022-07-23T11:32:22;5.85;;;4.65;;
43560;SDS011;32305;46.410;17.394;2022-07-23T11:34:51;6.15;;;4.75;;
43560;SDS011;32305;46.410;17.394;2022-07-23T11:37:27;4.95;;;4.55;;
43560;SDS011;32305;46.410;17.394;2022-07-23T11:39:58;5.40;;;4.90;;
43560;SDS011;32305;46.410;17.394;2022-07-23T11:42:26;5.75;;;5.22;;
43560;SDS011;32305;46.410;17.394;2022-07-23T11:44:57;6.72;;;5.10;;
43560;SDS011;32305;46.410;17.394;2022-07-23T11:47:25;5.40;;;4.90;;
43560;SDS011;32305;46.410;17.394;2022-07-23T11:49:53;6.65;;;4.43;;
43560;SDS011;32305;46.410;17.394;2022-07-23T11:52:22;4.82;;;4.43;;
43560;SDS011;32305;46.410;17.394;2022-07-23T11:54:51;6.40;;;5.57;;
43560;SDS011;32305;46.410;17.394;2022-07-23T11:57:24;6.03;;;5.43;;
43560;SDS011;32305;46.410;17.394;2022-07-23T11:59:55;5.93;;;5.32;;
43560;SDS011;32305;46.410;17.394;2022-07-23T12:02:24;5.55;;;5.07;;
43560;SDS011;32305;46.410;17.394;2022-07-23T12:04:52;5.95;;;5.22;;
43560;SDS011;32305;46.410;17.394;2022-07-23T12:07:34;6.50;;;5.10;;
43560;SDS011;32305;46.410;17.394;2022-07-23T12:10:13;5.63;;;5.13;;
43560;SDS011;32305;46.410;17.394;2022-07-23T12:12:48;6.00;;;5.50;;
43560;SDS011;32305;46.410;17.394;2022-07-23T12:15:28;7.22;;;6.13;;
43560;SDS011;32305;46.410;17.394;2022-07-23T12:17:59;6.75;;;5.47;;
43560;SDS011;32305;46.410;17.394;2022-07-23T12:20:33;6.22;;;5.63;;
43560;SDS011;32305;46.410;17.394;2022-07-23T12:23:03;6.35;;;5.82;;
43560;SDS011;32305;46.410;17.394;2022-07-23T12:25:33;7.90;;;5.78;;
43560;SDS011;32305;46.410;17.394;2022-07-23T12:28:04;8.47;;;6.47;;
43560;SDS011;32305;46.410;17.394;2022-07-23T12:30:43;6.70;;;6.10;;
43560;SDS011;32305;46.410;17.394;2022-07-23T12:33:27;6.43;;;5.82;;
43560;SDS011;32305;46.410;17.394;2022-07-23T12:35:57;7.40;;;6.65;;
43560;SDS011;32305;46.410;17.394;2022-07-23T12:38:26;7.45;;;6.63;;
43560;SDS011;32305;46.410;17.394;2022-07-23T12:41:02;6.68;;;6.00;;
43560;SDS011;32305;46.410;17.394;2022-07-23T12:43:32;7.60;;;6.90;;
43560;SDS011;32305;46.410;17.394;2022-07-23T12:46:06;7.75;;;6.22;;
43560;SDS011;32305;46.410;17.394;2022-07-23T12:48:35;7.45;;;6.75;;
43560;SDS011;32305;46.410;17.394;2022-07-23T12:51:25;7.83;;;7.03;;
43560;SDS011;32305;46.410;17.394;2022-07-23T12:53:56;7.38;;;6.68;;
43560;SDS011;32305;46.410;17.394;2022-07-23T12:56:39;8.60;;;7.80;;
43560;SDS011;32305;46.410;17.394;2022-07-23T12:59:14;9.25;;;8.25;;
43560;SDS011;32305;46.410;17.394;2022-07-23T13:01:45;8.75;;;7.85;;
43560;SDS011;32305;46.410;17.394;2022-07-23T13:04:21;9.65;;;8.68;;
43560;SDS011;32305;46.410;17.394;2022-07-23T13:06:50;9.30;;;8.02;;
43560;SDS011;32305;46.410;17.394;2022-07-23T13:09:20;10.07;;;9.00;;
43560;SDS011;32305;46.410;17.394;2022-07-23T13:11:51;9.80;;;8.82;;
43560;SDS011;32305;46.410;17.394;2022-07-23T13:14:22;10.02;;;9.02;;
43560;SDS011;32305;46.410;17.394;2022-07-23T13:16:52;10.55;;;9.25;;
43560;SDS011;32305;46.410;17.394;2022-07-23T13:19:22;10.70;;;9.45;;
43560;SDS011;32305;46.410;17.394;2022-07-23T13:21:51;11.52;;;10.32;;
43560;SDS011;32305;46.410;17.394;2022-07-23T13:24:18;12.50;;;10.60;;
43560;SDS011;32305;46.410;17.394;2022-07-23T13:26:47;11.52;;;10.10;;
43560;SDS011;32305;46.410;17.394;2022-07-23T13:29:16;13.85;;;11.15;;
43560;SDS011;32305;46.410;17.394;2022-07-23T13:31:45;12.68;;;10.80;;
43560;SDS011;32305;46.410;17.394;2022-07-23T13:34:14;13.60;;;11.40;;
43560;SDS011;32305;46.410;17.394;2022-07-23T13:36:41;12.32;;;11.05;;
43560;SDS011;32305;46.410;17.394;2022-07-23T13:39:10;15.45;;;11.90;;
43560;SDS011;32305;46.410;17.394;2022-07-23T13:41:37;15.00;;;12.52;;
43560;SDS011;32305;46.410;17.394;2022-07-23T13:44:14;15.27;;;12.77;;
43560;SDS011;32305;46.410;17.394;2022-07-23T13:46:42;16.23;;;13.57;;
43560;SDS011;32305;46.410;17.394;2022-07-23T13:49:09;19.15;;;14.30;;
43560;SDS011;32305;46.410;17.394;2022-07-23T13:51:36;17.73;;;14.35;;
43560;SDS011;32305;46.410;17.394;2022-07-23T13:54:04;18.27;;;14.85;;
43560;SDS011;32305;46.410;17.394;2022-07-23T13:56:34;20.48;;;15.25;;
43560;SDS011;32305;46.410;17.394;2022-07-23T13:59:02;19.40;;;16.08;;
43560;SDS011;32305;46.410;17.394;2022-07-23T14:01:32;21.13;;;16.42;;
43560;SDS011;32305;46.410;17.394;2022-07-23T14:04:15;19.25;;;16.40;;
43560;SDS011;32305;46.410;17.394;2022-07-23T14:06:43;20.77;;;16.95;;
43560;SDS011;32305;46.410;17.394;2022-07-23T14:09:18;20.67;;;17.50;;
43560;SDS011;32305;46.410;17.394;2022-07-23T14:11:45;20.33;;;17.52;;
43560;SDS011;32305;46.410;17.394;2022-07-23T14:14:12;23.15;;;17.90;;
43560;SDS011;32305;46.410;17.394;2022-07-23T14:16:40;20.77;;;16.88;;
43560;SDS011;32305;46.410;17.394;2022-07-23T14:19:08;22.25;;;18.58;;
43560;SDS011;32305;46.410;17.394;2022-07-23T14:21:35;23.50;;;17.70;;
43560;SDS011;32305;46.410;17.394;2022-07-23T14:24:02;21.42;;;18.20;;
43560;SDS011;32305;46.410;17.394;2022-07-23T14:26:31;22.50;;;19.23;;
43560;SDS011;32305;46.410;17.394;2022-07-23T14:28:59;22.30;;;17.73;;
43560;SDS011;32305;46.410;17.394;2022-07-23T14:31:26;22.25;;;18.50;;
43560;SDS011;32305;46.410;17.394;2022-07-23T14:33:54;22.98;;;18.52;;
43560;SDS011;32305;46.410;17.394;2022-07-23T14:36:22;21.52;;;17.48;;
43560;SDS011;32305;46.410;17.394;2022-07-23T14:38:49;27.42;;;19.83;;
43560;SDS011;32305;46.410;17.394;2022-07-23T14:41:16;24.13;;;18.92;;
43560;SDS011;32305;46.410;17.394;2022-07-23T14:43:48;22.58;;;18.48;;
43560;SDS011;32305;46.410;17.394;2022-07-23T14:46:15;24.13;;;19.77;;
43560;SDS011;32305;46.410;17.394;2022-07-23T14:48:44;22.77;;;18.00;;
43560;SDS011;32305;46.410;17.394;2022-07-23T14:51:11;22.00;;;17.60;;
43560;SDS011;32305;46.410;17.394;2022-07-23T14:53:38;25.40;;;20.17;;
43560;SDS011;32305;46.410;17.394;2022-07-23T14:56:05;22.10;;;18.67;;
43560;SDS011;32305;46.410;17.394;2022-07-23T14:58:32;23.52;;;19.63;;
43560;SDS011;32305;46.410;17.394;2022-07-23T15:01:03;23.48;;;18.90;;
43560;SDS011;32305;46.410;17.394;2022-07-23T15:03:30;24.52;;;19.23;;
43560;SDS011;32305;46.410;17.394;2022-07-23T15:06:08;22.65;;;19.10;;
43560;SDS011;32305;46.410;17.394;2022-07-23T15:08:37;22.02;;;18.45;;
43560;SDS011;32305;46.410;17.394;2022-07-23T15:11:05;20.70;;;18.38;;